Terminal Aerodrome Forecast
Issued by NWS

Home | Current Version | Previous Version | Text Only | Print | Product List | Glossary On
Versions: 1 2 3 4 5 6 7 8 9 10 11 12 13 14
232
FTUS45 KRIW 302322
TAFWRL
TAF
KWRL 302322Z 3100/3124 35014G24KT P6SM VCSH BKN070
     FM310200 33010KT P6SM BKN070
     FM310700 VRB05KT P6SM BKN060
     FM311600 34012G18KT P6SM SCT080=

USA.gov is the U.S. government's official web portal to all federal, state and local government web resources and services.